KG-0028 weather

CLOSED Kara Baita Airport
Kara Baita, Chuy Region, Kyrgyzstan

Public forecast

Using degrees Celsius for public forecast. Weather courtesy of forecast.io.

METAR (pilot weather report)

Closest report is Manas International Airport, 29.5 nm (54.6 km) ENE. Retrieved 2019/03/22 05:30 UTC (29 minutes ago):

UCFM 220530Z 09003MPS 040V150 CAVOK 14/02 Q1020 R08/09//95 NOSIG

TAF (pilot weather forecast)

Forecast is more than 12 hours old.

Closest forecast is Manas International Airport, 29.5 nm (54.6 km) ENE. Retrieved 2019/03/21 00:00 UTC (1 day ago):

TAF UCFM 212247Z 2200/2224 12003G08MPS 4000 BR SCT040CB TEMPO 2200/2206 24003G08MPS 1000 BR FU FEW005 BKN025CB BECMG 2206/2207 32003G08MPS 8000 NSW TEMPO 2206/2212 1500 FU